sensor_id;sensor_type;location;lat;lon;timestamp;pressure;altitude;pressure_sealevel;temperature;humidity
31092;BME280;17747;51.070;10.930;2022-08-11T00:00:45;101807.25;;;14.41;61.14
31092;BME280;17747;51.070;10.930;2022-08-11T00:01:48;101811.53;;;14.48;60.71
31092;BME280;17747;51.070;10.930;2022-08-11T00:02:50;101812.03;;;14.25;60.37
31092;BME280;17747;51.070;10.930;2022-08-11T00:03:55;101811.00;;;14.31;61.03
31092;BME280;17747;51.070;10.930;2022-08-11T00:05:02;101809.97;;;13.98;62.09
31092;BME280;17747;51.070;10.930;2022-08-11T00:06:03;101805.69;;;14.31;61.70
31092;BME280;17747;51.070;10.930;2022-08-11T00:07:05;101805.09;;;14.18;62.15
31092;BME280;17747;51.070;10.930;2022-08-11T00:08:06;101797.09;;;14.20;61.92
31092;BME280;17747;51.070;10.930;2022-08-11T00:09:15;101802.78;;;14.03;62.61
31092;BME280;17747;51.070;10.930;2022-08-11T00:10:18;101799.06;;;14.11;62.42
31092;BME280;17747;51.070;10.930;2022-08-11T00:11:21;101803.28;;;14.20;62.75
31092;BME280;17747;51.070;10.930;2022-08-11T00:12:30;101789.88;;;14.26;62.37
31092;BME280;17747;51.070;10.930;2022-08-11T00:13:36;101795.53;;;13.69;63.34
31092;BME280;17747;51.070;10.930;2022-08-11T00:14:37;101801.72;;;14.50;61.11
31092;BME280;17747;51.070;10.930;2022-08-11T00:15:42;101796.41;;;14.50;60.89
31092;BME280;17747;51.070;10.930;2022-08-11T00:16:52;101793.25;;;14.71;60.17
31092;BME280;17747;51.070;10.930;2022-08-11T00:17:55;101795.81;;;14.37;61.39
31092;BME280;17747;51.070;10.930;2022-08-11T00:18:57;101791.94;;;14.13;62.23
31092;BME280;17747;51.070;10.930;2022-08-11T00:20:04;101797.81;;;13.86;63.16
31092;BME280;17747;51.070;10.930;2022-08-11T00:21:06;101785.00;;;14.06;62.85
31092;BME280;17747;51.070;10.930;2022-08-11T00:22:08;101791.03;;;13.71;64.50
31092;BME280;17747;51.070;10.930;2022-08-11T00:23:12;101796.94;;;13.85;63.65
31092;BME280;17747;51.070;10.930;2022-08-11T00:24:15;101788.78;;;13.95;63.26
31092;BME280;17747;51.070;10.930;2022-08-11T00:25:18;101781.56;;;13.58;64.53
31092;BME280;17747;51.070;10.930;2022-08-11T00:26:22;101788.97;;;14.27;62.53
31092;BME280;17747;51.070;10.930;2022-08-11T00:27:31;101787.34;;;14.20;62.77
31092;BME280;17747;51.070;10.930;2022-08-11T00:28:33;101785.88;;;14.07;63.02
31092;BME280;17747;51.070;10.930;2022-08-11T00:29:36;101789.19;;;14.16;62.62
31092;BME280;17747;51.070;10.930;2022-08-11T00:30:38;101793.34;;;13.90;63.91
31092;BME280;17747;51.070;10.930;2022-08-11T00:31:43;101788.31;;;13.74;64.54
31092;BME280;17747;51.070;10.930;2022-08-11T00:32:53;101788.00;;;13.91;63.65
31092;BME280;17747;51.070;10.930;2022-08-11T00:33:55;101785.13;;;13.57;64.35
31092;BME280;17747;51.070;10.930;2022-08-11T00:34:59;101789.13;;;13.79;64.62
31092;BME280;17747;51.070;10.930;2022-08-11T00:36:02;101788.28;;;13.77;64.17
31092;BME280;17747;51.070;10.930;2022-08-11T00:37:06;101799.34;;;13.98;63.51
31092;BME280;17747;51.070;10.930;2022-08-11T00:38:09;101791.38;;;13.98;62.97
31092;BME280;17747;51.070;10.930;2022-08-11T00:39:12;101786.63;;;14.51;61.21
31092;BME280;17747;51.070;10.930;2022-08-11T00:40:18;101792.16;;;14.03;60.65
31092;BME280;17747;51.070;10.930;2022-08-11T00:41:31;101793.34;;;13.90;61.35
31092;BME280;17747;51.070;10.930;2022-08-11T00:42:55;101792.66;;;14.22;61.47
31092;BME280;17747;51.070;10.930;2022-08-11T00:44:28;101785.06;;;14.03;62.52
31092;BME280;17747;51.070;10.930;2022-08-11T00:45:39;101796.22;;;13.79;62.51
31092;BME280;17747;51.070;10.930;2022-08-11T00:46:50;101791.16;;;13.64;63.39
31092;BME280;17747;51.070;10.930;2022-08-11T00:48:02;101795.69;;;13.58;64.29
31092;BME280;17747;51.070;10.930;2022-08-11T00:49:12;101797.25;;;13.24;65.48
31092;BME280;17747;51.070;10.930;2022-08-11T00:50:24;101791.56;;;13.44;64.76
31092;BME280;17747;51.070;10.930;2022-08-11T00:51:40;101792.59;;;13.37;65.17
31092;BME280;17747;51.070;10.930;2022-08-11T00:53:11;101804.34;;;13.22;66.57
31092;BME280;17747;51.070;10.930;2022-08-11T00:54:35;101804.19;;;13.29;65.82
31092;BME280;17747;51.070;10.930;2022-08-11T00:56:22;101800.75;;;13.26;66.18
31092;BME280;17747;51.070;10.930;2022-08-11T00:57:44;101798.22;;;13.18;66.50
31092;BME280;17747;51.070;10.930;2022-08-11T00:59:28;101794.66;;;13.67;65.46
31092;BME280;17747;51.070;10.930;2022-08-11T01:00:47;101802.44;;;13.28;65.41
31092;BME280;17747;51.070;10.930;2022-08-11T01:02:04;101791.16;;;13.64;64.30
31092;BME280;17747;51.070;10.930;2022-08-11T01:03:17;101796.75;;;13.02;65.16
31092;BME280;17747;51.070;10.930;2022-08-11T01:04:53;101798.91;;;13.29;64.79
31092;BME280;17747;51.070;10.930;2022-08-11T01:06:20;101794.56;;;13.25;65.14
31092;BME280;17747;51.070;10.930;2022-08-11T01:09:30;101800.06;;;13.15;65.94
31092;BME280;17747;51.070;10.930;2022-08-11T01:10:45;101799.41;;;13.02;66.97
31092;BME280;17747;51.070;10.930;2022-08-11T01:12:14;101805.22;;;13.22;66.91
31092;BME280;17747;51.070;10.930;2022-08-11T01:13:41;101796.81;;;13.47;65.62
31092;BME280;17747;51.070;10.930;2022-08-11T01:14:59;101801.25;;;13.46;64.96
31092;BME280;17747;51.070;10.930;2022-08-11T01:18:20;101805.22;;;13.70;64.32
31092;BME280;17747;51.070;10.930;2022-08-11T01:23:27;101797.28;;;13.22;64.98
31092;BME280;17747;51.070;10.930;2022-08-11T01:24:58;101798.25;;;13.17;65.26
31092;BME280;17747;51.070;10.930;2022-08-11T01:29:56;101782.50;;;12.54;67.56
31092;BME280;17747;51.070;10.930;2022-08-11T01:31:36;101796.56;;;12.57;68.04
31092;BME280;17747;51.070;10.930;2022-08-11T01:33:24;101794.16;;;12.99;66.45
31092;BME280;17747;51.070;10.930;2022-08-11T01:36:46;101788.69;;;12.51;67.90
31092;BME280;17747;51.070;10.930;2022-08-11T01:38:07;101782.41;;;12.58;67.53
31092;BME280;17747;51.070;10.930;2022-08-11T01:39:44;101794.00;;;13.07;65.74
31092;BME280;17747;51.070;10.930;2022-08-11T01:41:30;101791.94;;;12.71;66.10
31092;BME280;17747;51.070;10.930;2022-08-11T01:44:45;101788.31;;;12.79;65.82
31092;BME280;17747;51.070;10.930;2022-08-11T01:45:58;101789.38;;;12.67;66.10
31092;BME280;17747;51.070;10.930;2022-08-11T01:47:08;101793.28;;;12.41;67.38
31092;BME280;17747;51.070;10.930;2022-08-11T01:48:40;101789.34;;;12.07;68.18
31092;BME280;17747;51.070;10.930;2022-08-11T01:49:53;101791.72;;;12.27;67.78
31092;BME280;17747;51.070;10.930;2022-08-11T01:51:07;101794.22;;;12.36;67.15
31092;BME280;17747;51.070;10.930;2022-08-11T01:52:16;101790.47;;;12.52;66.89
31092;BME280;17747;51.070;10.930;2022-08-11T01:53:27;101790.69;;;12.37;67.77
31092;BME280;17747;51.070;10.930;2022-08-11T01:54:38;101794.22;;;12.37;67.10
31092;BME280;17747;51.070;10.930;2022-08-11T01:55:48;101791.25;;;12.57;67.44
31092;BME280;17747;51.070;10.930;2022-08-11T01:57:11;101786.75;;;12.65;66.45
31092;BME280;17747;51.070;10.930;2022-08-11T01:58:25;101790.41;;;12.55;66.69
31092;BME280;17747;51.070;10.930;2022-08-11T01:59:33;101788.84;;;12.42;67.23
31092;BME280;17747;51.070;10.930;2022-08-11T02:00:47;101788.88;;;12.40;67.83
31092;BME280;17747;51.070;10.930;2022-08-11T02:02:08;101790.50;;;12.49;67.12
31092;BME280;17747;51.070;10.930;2022-08-11T02:03:17;101786.28;;;12.36;67.36
31092;BME280;17747;51.070;10.930;2022-08-11T02:04:28;101789.84;;;12.35;67.09
31092;BME280;17747;51.070;10.930;2022-08-11T02:05:43;101784.84;;;12.73;65.56
31092;BME280;17747;51.070;10.930;2022-08-11T02:06:49;101783.75;;;12.27;65.39
31092;BME280;17747;51.070;10.930;2022-08-11T02:08:04;101789.56;;;12.53;64.49
31092;BME280;17747;51.070;10.930;2022-08-11T02:09:14;101788.75;;;12.48;64.93
31092;BME280;17747;51.070;10.930;2022-08-11T02:10:23;101787.72;;;12.58;65.33
31092;BME280;17747;51.070;10.930;2022-08-11T02:11:45;101779.75;;;12.58;65.79
31092;BME280;17747;51.070;10.930;2022-08-11T02:12:53;101792.53;;;12.32;67.16
31092;BME280;17747;51.070;10.930;2022-08-11T02:14:00;101784.28;;;11.90;68.84
31092;BME280;17747;51.070;10.930;2022-08-11T02:15:11;101791.19;;;12.02;68.88
31092;BME280;17747;51.070;10.930;2022-08-11T02:16:20;101782.94;;;12.23;68.23
31092;BME280;17747;51.070;10.930;2022-08-11T02:17:37;101780.34;;;12.20;68.90
31092;BME280;17747;51.070;10.930;2022-08-11T02:18:46;101783.81;;;12.24;68.85
31092;BME280;17747;51.070;10.930;2022-08-11T02:20:15;101776.63;;;12.32;68.23
31092;BME280;17747;51.070;10.930;2022-08-11T02:21:43;101777.69;;;12.20;68.34
31092;BME280;17747;51.070;10.930;2022-08-11T02:23:12;101776.50;;;12.39;68.23
31092;BME280;17747;51.070;10.930;2022-08-11T02:24:42;101778.78;;;12.67;67.25
31092;BME280;17747;51.070;10.930;2022-08-11T02:25:49;101778.97;;;12.53;67.37
31092;BME280;17747;51.070;10.930;2022-08-11T02:26:59;101778.28;;;12.40;67.59
31092;BME280;17747;51.070;10.930;2022-08-11T02:28:06;101778.09;;;12.51;66.76
31092;BME280;17747;51.070;10.930;2022-08-11T02:29:14;101782.72;;;12.37;67.34
31092;BME280;17747;51.070;10.930;2022-08-11T02:30:23;101780.44;;;12.12;67.31
31092;BME280;17747;51.070;10.930;2022-08-11T02:31:37;101779.22;;;12.36;66.94
31092;BME280;17747;51.070;10.930;2022-08-11T02:33:12;101780.38;;;12.15;66.56
31092;BME280;17747;51.070;10.930;2022-08-11T02:34:37;101781.41;;;12.07;67.40
31092;BME280;17747;51.070;10.930;2022-08-11T02:35:47;101782.47;;;11.95;68.03
31092;BME280;17747;51.070;10.930;2022-08-11T02:36:54;101782.16;;;12.15;67.87
31092;BME280;17747;51.070;10.930;2022-08-11T02:38:13;101775.22;;;12.08;67.73
31092;BME280;17747;51.070;10.930;2022-08-11T02:39:19;101782.41;;;11.98;68.12
31092;BME280;17747;51.070;10.930;2022-08-11T02:40:33;101780.38;;;12.15;68.09
31092;BME280;17747;51.070;10.930;2022-08-11T02:41:44;101775.19;;;12.09;68.33
31092;BME280;17747;51.070;10.930;2022-08-11T02:43:13;101773.91;;;12.36;68.39
31092;BME280;17747;51.070;10.930;2022-08-11T02:44:26;101768.53;;;12.42;67.81
31092;BME280;17747;51.070;10.930;2022-08-11T02:45:35;101775.03;;;12.22;68.65
31092;BME280;17747;51.070;10.930;2022-08-11T02:46:48;101769.66;;;12.25;68.73
31092;BME280;17747;51.070;10.930;2022-08-11T02:47:55;101771.38;;;12.29;68.75
31092;BME280;17747;51.070;10.930;2022-08-11T02:49:27;101776.50;;;12.41;68.04
31092;BME280;17747;51.070;10.930;2022-08-11T02:51:03;101775.19;;;12.69;67.23
31092;BME280;17747;51.070;10.930;2022-08-11T02:52:08;101785.09;;;11.94;68.41
31092;BME280;17747;51.070;10.930;2022-08-11T02:53:21;101786.84;;;12.58;66.75
31092;BME280;17747;51.070;10.930;2022-08-11T02:54:29;101780.22;;;12.29;67.59
31092;BME280;17747;51.070;10.930;2022-08-11T02:55:40;101774.34;;;12.06;68.82
31092;BME280;17747;51.070;10.930;2022-08-11T02:56:49;101776.66;;;12.30;68.30
31092;BME280;17747;51.070;10.930;2022-08-11T02:57:57;101780.16;;;11.66;69.78
31092;BME280;17747;51.070;10.930;2022-08-11T02:59:05;101776.91;;;12.12;68.81
31092;BME280;17747;51.070;10.930;2022-08-11T03:00:28;101781.63;;;11.90;68.42
31092;BME280;17747;51.070;10.930;2022-08-11T03:01:39;101779.50;;;12.18;68.57
31092;BME280;17747;51.070;10.930;2022-08-11T03:02:54;101783.38;;;11.91;68.85
31092;BME280;17747;51.070;10.930;2022-08-11T03:04:04;101777.84;;;12.09;69.07
31092;BME280;17747;51.070;10.930;2022-08-11T03:05:17;101770.72;;;12.13;68.65
31092;BME280;17747;51.070;10.930;2022-08-11T03:06:28;101776.09;;;12.08;68.78
31092;BME280;17747;51.070;10.930;2022-08-11T03:07:40;101773.56;;;11.99;69.35
31092;BME280;17747;51.070;10.930;2022-08-11T03:08:55;101776.22;;;11.99;70.36
31092;BME280;17747;51.070;10.930;2022-08-11T03:10:05;101774.91;;;12.29;69.26
31092;BME280;17747;51.070;10.930;2022-08-11T03:11:13;101773.63;;;11.93;69.48
31092;BME280;17747;51.070;10.930;2022-08-11T03:12:41;101770.41;;;11.70;71.17
31092;BME280;17747;51.070;10.930;2022-08-11T03:14:11;101770.41;;;11.70;70.97
31092;BME280;17747;51.070;10.930;2022-08-11T03:15:40;101767.00;;;11.62;70.35
31092;BME280;17747;51.070;10.930;2022-08-11T03:17:14;101762.16;;;11.96;69.82
31092;BME280;17747;51.070;10.930;2022-08-11T03:18:22;101773.97;;;11.67;70.18
31092;BME280;17747;51.070;10.930;2022-08-11T03:19:32;101771.50;;;12.21;68.49
31092;BME280;17747;51.070;10.930;2022-08-11T03:20:40;101766.06;;;12.29;67.59
31092;BME280;17747;51.070;10.930;2022-08-11T03:21:47;101771.91;;;11.91;69.09
31092;BME280;17747;51.070;10.930;2022-08-11T03:23:02;101760.22;;;12.07;68.29
31092;BME280;17747;51.070;10.930;2022-08-11T03:24:12;101771.94;;;11.89;68.80
31092;BME280;17747;51.070;10.930;2022-08-11T03:25:21;101764.78;;;11.97;68.50
31092;BME280;17747;51.070;10.930;2022-08-11T03:26:32;101763.66;;;11.44;68.96
31092;BME280;17747;51.070;10.930;2022-08-11T03:27:47;101764.34;;;11.59;68.37
31092;BME280;17747;51.070;10.930;2022-08-11T03:29:00;101772.13;;;11.74;67.84
31092;BME280;17747;51.070;10.930;2022-08-11T03:30:08;101774.94;;;11.62;69.29
31092;BME280;17747;51.070;10.930;2022-08-11T03:31:20;101769.41;;;11.80;68.83
31092;BME280;17747;51.070;10.930;2022-08-11T03:32:27;101773.28;;;11.51;69.78
31092;BME280;17747;51.070;10.930;2022-08-11T03:33:35;101776.28;;;11.93;68.94
31092;BME280;17747;51.070;10.930;2022-08-11T03:34:57;101769.91;;;12.09;69.00
31092;BME280;17747;51.070;10.930;2022-08-11T03:36:09;101776.97;;;12.06;69.03
31092;BME280;17747;51.070;10.930;2022-08-11T03:37:22;101773.50;;;12.04;68.74
31092;BME280;17747;51.070;10.930;2022-08-11T03:38:49;101773.50;;;12.02;68.63
31092;BME280;17747;51.070;10.930;2022-08-11T03:40:02;101779.97;;;11.80;68.86
31092;BME280;17747;51.070;10.930;2022-08-11T03:41:15;101770.47;;;11.65;68.99
31092;BME280;17747;51.070;10.930;2022-08-11T03:42:42;101774.56;;;11.91;68.69
31092;BME280;17747;51.070;10.930;2022-08-11T03:43:55;101773.63;;;11.93;68.50
31092;BME280;17747;51.070;10.930;2022-08-11T03:45:10;101768.25;;;11.99;69.41
31092;BME280;17747;51.070;10.930;2022-08-11T03:46:26;101767.25;;;12.09;68.68
31092;BME280;17747;51.070;10.930;2022-08-11T03:47:51;101775.47;;;11.88;68.74
31092;BME280;17747;51.070;10.930;2022-08-11T03:49:06;101767.34;;;12.02;68.75
31092;BME280;17747;51.070;10.930;2022-08-11T03:50:15;101768.50;;;11.81;69.21
31092;BME280;17747;51.070;10.930;2022-08-11T03:51:28;101761.97;;;12.08;68.39
31092;BME280;17747;51.070;10.930;2022-08-11T03:52:41;101775.66;;;11.71;69.73
31092;BME280;17747;51.070;10.930;2022-08-11T03:54:04;101769.34;;;11.84;69.98
31092;BME280;17747;51.070;10.930;2022-08-11T03:55:17;101768.50;;;11.81;70.12
31092;BME280;17747;51.070;10.930;2022-08-11T04:01:47;101778.47;;;11.59;70.81
31092;BME280;17747;51.070;10.930;2022-08-11T04:03:21;101776.75;;;11.56;70.97
31092;BME280;17747;51.070;10.930;2022-08-11T04:05:01;101777.66;;;11.54;70.79
31092;BME280;17747;51.070;10.930;2022-08-11T04:06:36;101771.34;;;11.66;69.92
31092;BME280;17747;51.070;10.930;2022-08-11T04:08:13;101784.56;;;11.66;70.49
31092;BME280;17747;51.070;10.930;2022-08-11T04:11:35;101764.72;;;12.00;70.10
31092;BME280;17747;51.070;10.930;2022-08-11T04:13:08;101772.97;;;12.42;68.17
31092;BME280;17747;51.070;10.930;2022-08-11T04:16:14;101770.41;;;11.70;69.95
31092;BME280;17747;51.070;10.930;2022-08-11T04:18:02;101765.41;;;12.14;68.76
31092;BME280;17747;51.070;10.930;2022-08-11T04:19:28;101770.75;;;12.11;69.05
31092;BME280;17747;51.070;10.930;2022-08-11T04:21:03;101774.50;;;11.95;69.85
31092;BME280;17747;51.070;10.930;2022-08-11T04:24:05;101769.63;;;11.63;70.75
31092;BME280;17747;51.070;10.930;2022-08-11T04:25:33;101771.38;;;11.63;70.27
31092;BME280;17747;51.070;10.930;2022-08-11T04:26:55;101772.25;;;11.65;69.85
31092;BME280;17747;51.070;10.930;2022-08-11T04:28:23;101772.78;;;11.91;69.42
31092;BME280;17747;51.070;10.930;2022-08-11T04:29:38;101770.22;;;11.85;70.32
31092;BME280;17747;51.070;10.930;2022-08-11T04:31:08;101770.69;;;11.42;70.81
31092;BME280;17747;51.070;10.930;2022-08-11T04:32:30;101766.28;;;11.46;70.93
31092;BME280;17747;51.070;10.930;2022-08-11T04:33:53;101765.34;;;11.48;70.82
31092;BME280;17747;51.070;10.930;2022-08-11T04:35:31;101762.84;;;12.08;70.09
31092;BME280;17747;51.070;10.930;2022-08-11T04:36:44;101762.16;;;11.93;70.47
31092;BME280;17747;51.070;10.930;2022-08-11T04:38:24;101774.78;;;11.71;71.05
31092;BME280;17747;51.070;10.930;2022-08-11T04:39:46;101770.53;;;11.57;70.86
31092;BME280;17747;51.070;10.930;2022-08-11T04:41:19;101768.38;;;11.90;70.40
31092;BME280;17747;51.070;10.930;2022-08-11T04:45:08;101765.91;;;11.76;70.59
31092;BME280;17747;51.070;10.930;2022-08-11T04:46:40;101764.31;;;12.28;69.14
31092;BME280;17747;51.070;10.930;2022-08-11T04:48:05;101773.59;;;11.95;70.37
31092;BME280;17747;51.070;10.930;2022-08-11T04:49:46;101767.47;;;11.91;69.75
31092;BME280;17747;51.070;10.930;2022-08-11T04:51:31;101767.44;;;11.94;69.73
31092;BME280;17747;51.070;10.930;2022-08-11T04:53:18;101769.97;;;12.03;70.17
31092;BME280;17747;51.070;10.930;2022-08-11T04:54:53;101761.69;;;12.26;68.99
31092;BME280;17747;51.070;10.930;2022-08-11T04:56:15;101769.41;;;12.43;69.04
31092;BME280;17747;51.070;10.930;2022-08-11T04:57:46;101772.03;;;11.80;70.81
31092;BME280;17747;51.070;10.930;2022-08-11T04:59:42;101775.25;;;12.06;71.19
31092;BME280;17747;51.070;10.930;2022-08-11T05:01:19;101772.75;;;11.93;71.52
31092;BME280;17747;51.070;10.930;2022-08-11T05:03:26;101765.63;;;11.99;71.56
31092;BME280;17747;51.070;10.930;2022-08-11T05:04:44;101774.59;;;11.88;70.91
31092;BME280;17747;51.070;10.930;2022-08-11T05:07:57;101772.84;;;12.48;69.72
31092;BME280;17747;51.070;10.930;2022-08-11T05:09:20;101769.78;;;12.15;71.25
31092;BME280;17747;51.070;10.930;2022-08-11T05:10:40;101777.44;;;12.37;69.97
31092;BME280;17747;51.070;10.930;2022-08-11T05:12:08;101776.84;;;12.77;67.66
31092;BME280;17747;51.070;10.930;2022-08-11T05:13:26;101779.44;;;12.80;67.79
31092;BME280;17747;51.070;10.930;2022-08-11T05:14:48;101781.09;;;12.85;67.12
31092;BME280;17747;51.070;10.930;2022-08-11T05:16:10;101779.72;;;12.61;68.18
31092;BME280;17747;51.070;10.930;2022-08-11T05:17:38;101786.59;;;12.14;69.44
31092;BME280;17747;51.070;10.930;2022-08-11T05:19:00;101789.78;;;12.38;69.06
31092;BME280;17747;51.070;10.930;2022-08-11T05:20:20;101786.06;;;12.50;69.16
31092;BME280;17747;51.070;10.930;2022-08-11T05:21:46;101786.28;;;12.36;68.81
31092;BME280;17747;51.070;10.930;2022-08-11T05:23:10;101788.16;;;12.29;69.87
31092;BME280;17747;51.070;10.930;2022-08-11T05:24:34;101788.38;;;12.72;68.64
31092;BME280;17747;51.070;10.930;2022-08-11T05:25:57;101791.75;;;12.84;69.65
31092;BME280;17747;51.070;10.930;2022-08-11T05:27:18;101795.75;;;13.08;67.87
31092;BME280;17747;51.070;10.930;2022-08-11T05:28:41;101794.41;;;12.82;69.04
31092;BME280;17747;51.070;10.930;2022-08-11T05:30:06;101799.41;;;13.02;68.93
31092;BME280;17747;51.070;10.930;2022-08-11T05:31:31;101794.56;;;12.75;69.15
31092;BME280;17747;51.070;10.930;2022-08-11T05:32:57;101790.94;;;13.29;67.50
31092;BME280;17747;51.070;10.930;2022-08-11T05:34:21;101796.06;;;13.39;67.31
31092;BME280;17747;51.070;10.930;2022-08-11T05:35:43;101795.22;;;12.89;69.15
31092;BME280;17747;51.070;10.930;2022-08-11T05:36:47;101793.94;;;13.11;68.24
31092;BME280;17747;51.070;10.930;2022-08-11T05:37:49;101800.06;;;13.15;68.57
31092;BME280;17747;51.070;10.930;2022-08-11T05:39:14;101800.09;;;13.59;67.56
31092;BME280;17747;51.070;10.930;2022-08-11T05:40:34;101793.34;;;13.43;66.42
31092;BME280;17747;51.070;10.930;2022-08-11T05:41:56;101801.09;;;13.54;66.96
31092;BME280;17747;51.070;10.930;2022-08-11T05:43:15;101797.13;;;13.32;67.20
31092;BME280;17747;51.070;10.930;2022-08-11T05:44:37;101791.38;;;13.53;67.09
31092;BME280;17747;51.070;10.930;2022-08-11T05:45:59;101799.34;;;13.05;68.28
31092;BME280;17747;51.070;10.930;2022-08-11T05:47:23;101798.13;;;13.71;66.82
31092;BME280;17747;51.070;10.930;2022-08-11T05:48:43;101797.72;;;13.46;67.65
31092;BME280;17747;51.070;10.930;2022-08-11T05:50:07;101799.22;;;13.59;67.73
31092;BME280;17747;51.070;10.930;2022-08-11T05:51:33;101799.13;;;13.65;67.39
31092;BME280;17747;51.070;10.930;2022-08-11T05:52:52;101801.81;;;13.62;67.82
31092;BME280;17747;51.070;10.930;2022-08-11T05:54:15;101792.97;;;13.62;67.39
31092;BME280;17747;51.070;10.930;2022-08-11T05:55:38;101798.91;;;13.76;66.25
31092;BME280;17747;51.070;10.930;2022-08-11T05:56:58;101796.88;;;14.29;65.38
31092;BME280;17747;51.070;10.930;2022-08-11T05:58:03;101792.50;;;13.87;65.79
31092;BME280;17747;51.070;10.930;2022-08-11T05:59:11;101799.81;;;14.16;66.18
31092;BME280;17747;51.070;10.930;2022-08-11T06:00:14;101796.91;;;13.88;65.81
31092;BME280;17747;51.070;10.930;2022-08-11T06:01:22;101794.94;;;14.37;65.81
31092;BME280;17747;51.070;10.930;2022-08-11T06:02:25;101797.59;;;13.97;66.23
31092;BME280;17747;51.070;10.930;2022-08-11T06:03:28;101786.44;;;14.60;64.97
31092;BME280;17747;51.070;10.930;2022-08-11T06:04:31;101802.38;;;14.60;64.05
31092;BME280;17747;51.070;10.930;2022-08-11T06:05:33;101795.09;;;13.91;66.40
31092;BME280;17747;51.070;10.930;2022-08-11T06:06:35;101796.44;;;14.49;64.98
31092;BME280;17747;51.070;10.930;2022-08-11T06:07:37;101798.13;;;14.14;66.11
31092;BME280;17747;51.070;10.930;2022-08-11T06:08:38;101788.09;;;14.64;64.91
31092;BME280;17747;51.070;10.930;2022-08-11T06:09:48;101786.75;;;14.83;63.76
31092;BME280;17747;51.070;10.930;2022-08-11T06:10:50;101793.25;;;14.34;65.50
31092;BME280;17747;51.070;10.930;2022-08-11T06:11:51;101788.13;;;14.62;65.57
31092;BME280;17747;51.070;10.930;2022-08-11T06:12:53;101789.31;;;14.51;65.25
31092;BME280;17747;51.070;10.930;2022-08-11T06:13:55;101791.81;;;14.57;65.93
31092;BME280;17747;51.070;10.930;2022-08-11T06:15:03;101794.91;;;14.38;65.43
31092;BME280;17747;51.070;10.930;2022-08-11T06:16:07;101792.09;;;14.83;65.01
31092;BME280;17747;51.070;10.930;2022-08-11T06:17:08;101789.03;;;14.98;63.27
31092;BME280;17747;51.070;10.930;2022-08-11T06:18:11;101789.28;;;15.23;63.06
31092;BME280;17747;51.070;10.930;2022-08-11T06:19:13;101791.50;;;15.06;63.31
31092;BME280;17747;51.070;10.930;2022-08-11T06:20:15;101796.59;;;15.15;64.20
31092;BME280;17747;51.070;10.930;2022-08-11T06:21:17;101788.56;;;14.83;64.90
31092;BME280;17747;51.070;10.930;2022-08-11T06:22:20;101792.44;;;15.38;63.36
31092;BME280;17747;51.070;10.930;2022-08-11T06:23:24;101791.44;;;15.74;62.50
31092;BME280;17747;51.070;10.930;2022-08-11T06:24:32;101798.09;;;15.25;62.90
31092;BME280;17747;51.070;10.930;2022-08-11T06:25:35;101794.34;;;15.32;63.27
31092;BME280;17747;51.070;10.930;2022-08-11T06:26:38;101788.66;;;15.14;63.87
31092;BME280;17747;51.070;10.930;2022-08-11T06:27:41;101794.03;;;15.12;64.61
31092;BME280;17747;51.070;10.930;2022-08-11T06:28:45;101797.72;;;15.39;62.86
31092;BME280;17747;51.070;10.930;2022-08-11T06:29:49;101792.78;;;15.25;63.22
31092;BME280;17747;51.070;10.930;2022-08-11T06:30:51;101791.84;;;15.59;62.46
31092;BME280;17747;51.070;10.930;2022-08-11T06:31:56;101802.47;;;15.60;62.42
31092;BME280;17747;51.070;10.930;2022-08-11T06:32:59;101796.53;;;16.11;58.65
31092;BME280;17747;51.070;10.930;2022-08-11T06:34:08;101783.59;;;16.29;58.84
31092;BME280;17747;51.070;10.930;2022-08-11T06:35:21;101792.03;;;16.13;59.33
31092;BME280;17747;51.070;10.930;2022-08-11T06:36:28;101792.56;;;15.97;61.61
31092;BME280;17747;51.070;10.930;2022-08-11T06:37:56;101785.75;;;16.44;59.33
31092;BME280;17747;51.070;10.930;2022-08-11T06:39:11;101784.56;;;16.25;58.97
31092;BME280;17747;51.070;10.930;2022-08-11T06:40:27;101789.38;;;16.71;57.07
31092;BME280;17747;51.070;10.930;2022-08-11T06:41:37;101793.44;;;16.25;60.48
31092;BME280;17747;51.070;10.930;2022-08-11T06:42:47;101787.69;;;16.11;60.50
31092;BME280;17747;51.070;10.930;2022-08-11T06:43:57;101799.59;;;16.29;59.98
31092;BME280;17747;51.070;10.930;2022-08-11T06:45:03;101795.44;;;16.48;58.54
31092;BME280;17747;51.070;10.930;2022-08-11T06:46:08;101796.41;;;16.73;56.51
31092;BME280;17747;51.070;10.930;2022-08-11T06:47:13;101791.31;;;16.92;55.90
31092;BME280;17747;51.070;10.930;2022-08-11T06:48:20;101793.53;;;17.31;54.99
31092;BME280;17747;51.070;10.930;2022-08-11T06:49:23;101789.97;;;16.79;56.49
31092;BME280;17747;51.070;10.930;2022-08-11T06:50:51;101798.84;;;16.80;57.95
31092;BME280;17747;51.070;10.930;2022-08-11T06:52:12;101792.03;;;16.71;58.24
31092;BME280;17747;51.070;10.930;2022-08-11T06:53:16;101794.22;;;17.36;55.79
31092;BME280;17747;51.070;10.930;2022-08-11T06:54:17;101794.72;;;17.72;53.79
31092;BME280;17747;51.070;10.930;2022-08-11T06:55:22;101799.41;;;17.90;53.12
31092;BME280;17747;51.070;10.930;2022-08-11T06:56:45;101796.03;;;17.35;54.53
31092;BME280;17747;51.070;10.930;2022-08-11T06:58:05;101797.72;;;17.88;53.60
31092;BME280;17747;51.070;10.930;2022-08-11T06:59:29;101800.03;;;17.74;54.16
31092;BME280;17747;51.070;10.930;2022-08-11T07:00:53;101796.38;;;18.00;52.11
31092;BME280;17747;51.070;10.930;2022-08-11T07:02:05;101794.31;;;17.83;54.79